createdAt,value
2018-03-07T00:00:12.818Z,97.73
2018-03-07T00:01:12.808Z,98.21
2018-03-07T00:02:12.811Z,98.21
2018-03-07T00:03:12.798Z,98.21
2018-03-07T00:04:12.784Z,98.02
2018-03-07T00:05:12.773Z,98.30
2018-03-07T00:06:12.765Z,98.58
2018-03-07T00:07:12.796Z,98.30
2018-03-07T00:08:12.748Z,97.92
2018-03-07T00:09:12.740Z,97.26
2018-03-07T00:10:12.729Z,97.64
2018-03-07T00:11:12.722Z,97.73
2018-03-07T00:12:12.721Z,97.45
2018-03-07T00:13:12.704Z,97.92
2018-03-07T00:14:12.695Z,97.54
2018-03-07T00:15:12.690Z,97.64
2018-03-07T00:16:12.678Z,97.64
2018-03-07T00:17:12.667Z,97.26
2018-03-07T00:18:12.659Z,97.73
2018-03-07T00:19:12.653Z,98.02
2018-03-07T00:20:12.646Z,98.30
2018-03-07T00:21:12.633Z,98.02
2018-03-07T00:22:12.626Z,98.02
2018-03-07T00:23:12.613Z,98.02
2018-03-07T00:24:12.631Z,98.02
2018-03-07T00:25:12.599Z,97.83
2018-03-07T00:26:12.596Z,98.02
2018-03-07T00:27:12.583Z,98.49
2018-03-07T00:28:12.574Z,98.39
2018-03-07T00:29:12.566Z,98.87
2018-03-07T00:30:12.560Z,98.96
2018-03-07T00:31:12.548Z,98.77
2018-03-07T00:32:12.540Z,98.96
2018-03-07T00:33:19.767Z,98.58
2018-03-07T00:35:05.423Z,99.34
2018-03-07T00:36:05.398Z,99.53
2018-03-07T00:37:58.335Z,99.44
2018-03-07T00:38:58.307Z,99.34
2018-03-07T00:39:58.292Z,99.63
2018-03-07T00:40:58.286Z,99.63
2018-03-07T00:41:58.284Z,99.25
2018-03-07T00:42:58.269Z,99.72
2018-03-07T00:43:58.257Z,99.99
2018-03-07T00:44:58.252Z,99.06
2018-03-07T00:45:58.244Z,99.06
2018-03-07T00:46:58.233Z,99.44
2018-03-07T00:47:58.229Z,99.99
2018-03-07T00:48:58.219Z,99.99
2018-03-07T00:49:58.208Z,99.99
2018-03-07T00:50:58.198Z,99.99
2018-03-07T00:51:58.187Z,99.72
2018-03-07T00:52:58.177Z,99.99
2018-03-07T00:53:58.172Z,99.72
2018-03-07T00:54:58.163Z,99.99
2018-03-07T00:55:58.154Z,99.91
2018-03-07T00:56:58.146Z,99.99
2018-03-07T00:57:58.134Z,99.99
2018-03-07T00:58:58.122Z,99.99
2018-03-07T00:59:58.114Z,99.99
2018-03-07T01:00:58.112Z,99.99
2018-03-07T01:01:58.099Z,99.99
2018-03-07T01:02:58.095Z,99.99
2018-03-07T01:03:58.084Z,99.99
2018-03-07T01:04:58.071Z,99.99
2018-03-07T01:05:58.076Z,99.99
2018-03-07T01:06:58.063Z,99.99
2018-03-07T01:07:58.048Z,99.99
2018-03-07T01:08:58.048Z,99.99
2018-03-07T01:09:58.029Z,99.99
2018-03-07T01:10:58.020Z,99.99
2018-03-07T01:11:58.006Z,99.99
2018-03-07T01:12:58.000Z,99.99
2018-03-07T01:13:57.994Z,99.99
2018-03-07T01:14:57.985Z,99.99
2018-03-07T01:15:57.977Z,99.99
2018-03-07T01:16:57.966Z,99.99
2018-03-07T01:17:57.947Z,99.99
2018-03-07T01:18:57.944Z,99.99
2018-03-07T01:19:57.936Z,99.99
2018-03-07T01:20:57.930Z,99.99
2018-03-07T01:21:57.917Z,99.99
2018-03-07T01:22:57.911Z,99.99
2018-03-07T01:23:57.900Z,99.99
2018-03-07T01:24:57.893Z,99.99
2018-03-07T01:25:57.881Z,99.99
2018-03-07T01:26:57.873Z,99.99
2018-03-07T01:27:57.862Z,99.99
2018-03-07T01:28:57.856Z,99.99
2018-03-07T01:29:57.850Z,99.99
2018-03-07T01:30:57.838Z,99.99
2018-03-07T01:31:57.839Z,99.99
2018-03-07T01:32:57.819Z,99.99
2018-03-07T02:05:51.260Z,99.99
2018-03-07T02:06:51.226Z,99.99
2018-03-07T02:08:44.114Z,99.99
2018-03-07T02:09:44.083Z,99.99
2018-03-07T02:11:36.964Z,99.99
2018-03-07T02:12:36.933Z,99.99
2018-03-07T02:14:29.819Z,99.99
2018-03-07T02:15:29.790Z,99.99
2018-03-07T02:17:22.670Z,99.99
2018-03-07T02:18:22.648Z,99.99
2018-03-07T02:20:15.580Z,99.99
2018-03-07T02:21:15.582Z,99.99
2018-03-07T02:23:08.486Z,99.99
2018-03-07T02:24:08.458Z,99.99
2018-03-07T02:26:01.381Z,99.99
2018-03-07T02:27:01.352Z,99.99
2018-03-07T02:28:54.264Z,99.99
2018-03-07T02:29:54.250Z,99.99
2018-03-07T02:31:47.144Z,99.99
2018-03-07T02:32:47.118Z,99.99
2018-03-07T02:34:40.061Z,99.99
2018-03-07T02:35:40.016Z,99.99
2018-03-07T02:37:32.938Z,99.99
2018-03-07T02:38:32.919Z,99.99
2018-03-07T02:40:25.886Z,99.99
2018-03-07T02:41:25.879Z,99.99
2018-03-07T02:43:18.741Z,99.99
2018-03-07T02:44:18.724Z,99.99
2018-03-07T02:46:11.658Z,99.99
2018-03-07T02:47:11.629Z,99.99
2018-03-07T02:49:04.557Z,99.99
2018-03-07T02:50:04.535Z,99.99
2018-03-07T02:51:57.466Z,99.99
2018-03-07T02:52:57.430Z,99.99
2018-03-07T02:54:50.350Z,99.99
2018-03-07T02:55:50.334Z,99.99
2018-03-07T02:57:43.265Z,99.99
2018-03-07T02:58:43.229Z,99.99
2018-03-07T03:00:36.105Z,99.99
2018-03-07T03:01:36.092Z,99.99
2018-03-07T03:03:29.025Z,99.99
2018-03-07T03:04:28.999Z,99.99
2018-03-07T03:06:21.920Z,99.99
2018-03-07T03:07:21.904Z,99.99
2018-03-07T03:09:14.816Z,99.99
2018-03-07T03:10:15.756Z,99.99
2018-03-07T03:12:07.725Z,99.99
2018-03-07T03:13:07.708Z,99.99
2018-03-07T03:15:00.623Z,99.99
2018-03-07T03:16:00.606Z,99.99
2018-03-07T03:17:53.514Z,99.99
2018-03-07T03:18:53.494Z,99.99
2018-03-07T03:20:46.432Z,99.99
2018-03-07T03:21:46.407Z,99.99
2018-03-07T03:23:39.297Z,99.99
2018-03-07T03:24:39.267Z,99.99
2018-03-07T03:26:32.157Z,99.90
2018-03-07T03:27:32.134Z,99.99
2018-03-07T03:29:25.041Z,99.99
2018-03-07T03:30:25.008Z,99.99
2018-03-07T03:32:17.943Z,98.96
2018-03-07T03:33:17.915Z,98.96
2018-03-07T03:35:10.822Z,99.90
2018-03-07T03:36:10.813Z,99.99
2018-03-07T03:38:03.711Z,99.90
2018-03-07T03:39:03.683Z,99.99
2018-03-07T03:40:56.582Z,99.99
2018-03-07T03:41:56.568Z,99.99
2018-03-07T03:43:49.499Z,99.99
2018-03-07T03:44:49.489Z,99.99
2018-03-07T03:46:43.360Z,99.99
2018-03-07T03:47:43.347Z,99.99
2018-03-07T03:49:36.266Z,99.99
2018-03-07T03:50:36.228Z,99.99
2018-03-07T03:52:29.125Z,99.99
2018-03-07T03:53:29.104Z,99.99
2018-03-07T03:55:22.018Z,99.99
2018-03-07T03:56:21.993Z,99.99
2018-03-07T03:58:14.942Z,99.99
2018-03-07T03:59:14.904Z,99.99
2018-03-07T04:01:07.830Z,99.99
2018-03-07T04:02:07.804Z,99.99
2018-03-07T04:04:00.747Z,99.99
2018-03-07T04:05:00.714Z,99.99
2018-03-07T04:06:53.630Z,99.99
2018-03-07T04:07:53.614Z,99.99
2018-03-07T04:09:46.540Z,99.99
2018-03-07T04:10:46.514Z,99.99
2018-03-07T04:12:39.402Z,99.99
2018-03-07T04:13:39.381Z,99.99
2018-03-07T04:15:32.294Z,99.99
2018-03-07T04:16:32.263Z,99.99
2018-03-07T04:17:32.257Z,99.99
2018-03-07T04:18:32.247Z,99.99
2018-03-07T04:19:32.246Z,99.99
2018-03-07T04:20:32.226Z,99.99
2018-03-07T04:21:32.219Z,99.99
2018-03-07T04:22:32.217Z,99.99
2018-03-07T04:23:32.200Z,99.99
2018-03-07T04:24:32.190Z,99.99
2018-03-07T04:25:32.232Z,99.99
2018-03-07T04:26:32.174Z,99.99
2018-03-07T04:27:32.164Z,99.99
2018-03-07T04:28:32.155Z,99.99
2018-03-07T04:29:32.146Z,99.99
2018-03-07T04:30:32.135Z,99.99
2018-03-07T04:31:32.126Z,99.99
2018-03-07T04:32:32.116Z,99.99
2018-03-07T04:33:32.109Z,99.99
2018-03-07T04:34:32.101Z,99.99
2018-03-07T04:35:32.080Z,99.99
2018-03-07T04:36:32.087Z,99.99
2018-03-07T04:37:32.073Z,99.99
2018-03-07T04:38:32.064Z,99.99
2018-03-07T04:39:32.053Z,99.99
2018-03-07T04:40:32.044Z,99.99
2018-03-07T04:41:32.032Z,99.99
2018-03-07T04:42:32.025Z,99.99
2018-03-07T04:43:32.016Z,99.99
2018-03-07T04:44:32.010Z,99.99
2018-03-07T04:45:31.999Z,99.99
2018-03-07T04:46:31.994Z,99.99
2018-03-07T04:47:31.979Z,99.99
2018-03-07T04:48:31.972Z,99.99
2018-03-07T04:49:31.959Z,99.99
2018-03-07T04:50:31.954Z,99.99
2018-03-07T04:51:31.941Z,99.99
2018-03-07T04:52:31.931Z,99.99
2018-03-07T04:53:31.925Z,99.99
2018-03-07T04:54:31.925Z,99.99
2018-03-07T04:55:31.903Z,99.99
2018-03-07T04:56:31.884Z,99.99
2018-03-07T04:57:31.886Z,99.99
2018-03-07T04:58:31.875Z,99.99
2018-03-07T04:59:31.867Z,99.99
2018-03-07T05:00:31.857Z,99.99
2018-03-07T05:01:31.854Z,99.99
2018-03-07T05:02:31.840Z,99.99
2018-03-07T05:03:31.828Z,99.99
2018-03-07T05:04:31.823Z,99.99
2018-03-07T05:05:31.808Z,99.99
2018-03-07T05:06:31.801Z,99.99
2018-03-07T05:07:31.793Z,99.99
2018-03-07T05:08:31.781Z,99.99
2018-03-07T05:09:31.775Z,99.99
2018-03-07T05:10:31.787Z,99.99
2018-03-07T05:11:31.761Z,99.99
2018-03-07T05:12:31.744Z,99.99
2018-03-07T05:13:31.737Z,99.99
2018-03-07T05:14:31.730Z,99.99
2018-03-07T05:15:31.720Z,99.99
2018-03-07T05:16:31.714Z,99.99
2018-03-07T05:17:31.700Z,99.99
2018-03-07T05:18:31.690Z,99.99
2018-03-07T05:19:31.679Z,99.99
2018-03-07T05:20:31.676Z,99.99
2018-03-07T05:21:31.663Z,99.99
2018-03-07T05:22:31.670Z,99.99
2018-03-07T05:23:31.650Z,99.99
2018-03-07T05:24:31.633Z,99.99
2018-03-07T05:25:31.628Z,99.99
2018-03-07T05:26:31.617Z,99.99
2018-03-07T05:27:31.608Z,99.99
2018-03-07T05:28:31.601Z,99.58
2018-03-07T05:29:31.591Z,99.99
2018-03-07T05:30:31.581Z,99.86
2018-03-07T05:31:31.570Z,99.67
2018-03-07T05:32:31.561Z,99.86
2018-03-07T05:33:31.555Z,99.96
2018-03-07T05:34:31.546Z,99.39
2018-03-07T05:35:31.538Z,99.29
2018-03-07T05:36:31.524Z,99.01
2018-03-07T05:37:31.520Z,99.20
2018-03-07T05:38:31.507Z,99.01
2018-03-07T05:39:31.497Z,99.39
2018-03-07T05:40:32.247Z,99.10
2018-03-07T05:41:31.481Z,99.48
2018-03-07T05:42:31.472Z,99.10
2018-03-07T05:43:31.460Z,99.39
2018-03-07T05:44:31.454Z,99.20
2018-03-07T05:45:31.451Z,99.20
2018-03-07T05:46:31.458Z,98.82
2018-03-07T05:47:31.424Z,99.10
2018-03-07T05:48:31.417Z,99.29
2018-03-07T05:49:31.430Z,99.01
2018-03-07T05:50:31.399Z,99.01
2018-03-07T05:51:31.390Z,99.01
2018-03-07T05:52:31.380Z,98.82
2018-03-07T05:53:31.372Z,99.48
2018-03-07T05:54:31.361Z,99.01
2018-03-07T05:55:31.350Z,99.20
2018-03-07T05:56:31.346Z,99.39
2018-03-07T05:57:31.336Z,99.58
2018-03-07T05:58:31.324Z,99.39
2018-03-07T05:59:31.317Z,99.39
2018-03-07T06:00:31.306Z,99.39
2018-03-07T06:01:31.295Z,99.20
2018-03-07T06:02:31.287Z,99.39
2018-03-07T06:03:31.278Z,99.01
2018-03-07T06:04:31.268Z,99.48
2018-03-07T06:05:31.262Z,99.48
2018-03-07T06:06:31.250Z,99.58
2018-03-07T06:07:31.244Z,99.01
2018-03-07T06:08:31.232Z,99.33
2018-03-07T06:09:31.221Z,99.15
2018-03-07T06:10:31.215Z,98.77
2018-03-07T06:11:31.205Z,99.39
2018-03-07T06:12:31.199Z,99.20
2018-03-07T06:13:31.194Z,99.39
2018-03-07T06:14:31.178Z,99.29
2018-03-07T06:15:31.167Z,99.29
2018-03-07T06:16:31.162Z,99.29
2018-03-07T06:17:31.150Z,99.29
2018-03-07T06:18:31.142Z,99.01
2018-03-07T06:19:31.127Z,99.39
2018-03-07T06:20:31.123Z,99.58
2018-03-07T06:21:31.114Z,99.10
2018-03-07T06:22:31.103Z,99.10
2018-03-07T06:23:31.093Z,99.20
2018-03-07T06:24:33.820Z,99.10
2018-03-07T06:25:31.075Z,98.91
2018-03-07T06:26:31.070Z,98.54
2018-03-07T06:27:31.060Z,98.63
2018-03-07T06:28:31.047Z,98.63
2018-03-07T06:29:31.034Z,98.54
2018-03-07T06:30:31.030Z,98.44
2018-03-07T06:31:31.020Z,98.35
2018-03-07T06:32:31.009Z,98.35
2018-03-07T06:33:31.000Z,98.06
2018-03-07T06:34:31.002Z,97.59
2018-03-07T06:35:30.988Z,97.97
2018-03-07T06:36:30.976Z,97.87
2018-03-07T06:37:30.969Z,97.97
2018-03-07T06:38:30.981Z,98.16
2018-03-07T06:39:30.950Z,97.97
2018-03-07T06:40:30.938Z,97.97
2018-03-07T06:41:30.943Z,97.78
2018-03-07T06:42:30.915Z,97.97
2018-03-07T06:43:30.913Z,98.06
2018-03-07T06:44:30.907Z,98.06
2018-03-07T06:45:30.888Z,98.06
2018-03-07T06:46:30.935Z,97.97
2018-03-07T06:47:30.881Z,97.87
2018-03-07T06:48:30.870Z,98.25
2018-03-07T06:49:30.859Z,97.78
2018-03-07T06:50:30.853Z,97.59
2018-03-07T06:51:30.845Z,97.49
2018-03-07T06:52:30.838Z,96.73
2018-03-07T06:53:30.827Z,97.21
2018-03-07T06:54:30.819Z,96.73
2018-03-07T06:55:30.811Z,97.30
2018-03-07T06:56:30.799Z,97.73
2018-03-07T06:57:30.799Z,97.54
2018-03-07T06:58:30.783Z,97.83
2018-03-07T06:59:30.772Z,97.07
2018-03-07T07:00:30.765Z,97.07
2018-03-07T07:01:30.757Z,96.97
2018-03-07T07:02:30.753Z,97.16
2018-03-07T07:03:30.738Z,96.97
2018-03-07T07:04:30.749Z,97.02
2018-03-07T07:05:30.751Z,96.97
2018-03-07T07:06:30.721Z,96.97
2018-03-07T07:07:30.708Z,97.16
2018-03-07T07:08:30.697Z,97.16
2018-03-07T07:09:30.721Z,97.35
2018-03-07T07:10:30.683Z,97.35
2018-03-07T07:11:30.676Z,97.16
2018-03-07T07:12:30.673Z,96.97
2018-03-07T07:13:30.659Z,96.78
2018-03-07T07:14:30.651Z,96.97
2018-03-07T07:15:30.659Z,97.07
2018-03-07T07:16:30.636Z,96.88
2018-03-07T07:17:30.626Z,96.41
2018-03-07T07:18:30.626Z,96.69
2018-03-07T07:19:30.611Z,96.22
2018-03-07T07:20:30.605Z,96.03
2018-03-07T07:21:30.592Z,96.03
2018-03-07T07:22:30.584Z,96.41
2018-03-07T07:23:30.576Z,95.65
2018-03-07T07:24:30.572Z,96.03
2018-03-07T07:25:30.559Z,95.84
2018-03-07T07:26:30.554Z,95.93
2018-03-07T07:27:30.547Z,95.45
2018-03-07T07:28:30.539Z,95.74
2018-03-07T07:29:30.532Z,95.84
2018-03-07T07:30:30.523Z,95.26
2018-03-07T07:31:30.516Z,95.17
2018-03-07T07:32:30.510Z,94.89
2018-03-07T07:33:30.501Z,95.07
2018-03-07T07:34:30.493Z,94.74
2018-03-07T07:35:30.484Z,94.18
2018-03-07T07:36:30.488Z,94.65
2018-03-07T07:37:30.493Z,94.27
2018-03-07T07:38:30.468Z,93.99
2018-03-07T07:39:30.462Z,94.46
2018-03-07T07:40:30.453Z,94.27
2018-03-07T07:41:30.440Z,94.18
2018-03-07T07:42:30.440Z,94.18
2018-03-07T07:43:30.433Z,94.18
2018-03-07T07:44:30.425Z,94.18
2018-03-07T07:45:30.417Z,93.89
2018-03-07T07:46:30.414Z,93.41
2018-03-07T07:47:30.405Z,93.89
2018-03-07T07:48:30.402Z,93.32
2018-03-07T07:49:30.394Z,93.32
2018-03-07T07:50:30.398Z,93.23
2018-03-07T07:51:30.382Z,92.94
2018-03-07T07:52:30.375Z,93.80
2018-03-07T07:53:30.367Z,93.41
2018-03-07T07:54:30.383Z,93.99
2018-03-07T07:55:30.354Z,93.23
2018-03-07T07:56:30.352Z,93.13
2018-03-07T07:57:30.344Z,93.04
2018-03-07T07:58:30.348Z,93.13
2018-03-07T07:59:30.329Z,93.23
2018-03-07T08:00:30.328Z,93.51
2018-03-07T08:01:30.320Z,93.51
2018-03-07T08:02:30.315Z,93.65
2018-03-07T08:03:30.308Z,92.23
2018-03-07T08:04:30.299Z,91.75
2018-03-07T08:05:30.299Z,91.19
2018-03-07T08:06:30.290Z,91.71
2018-03-07T08:07:30.286Z,91.14
2018-03-07T08:08:30.280Z,90.95
2018-03-07T08:09:30.277Z,90.66
2018-03-07T08:10:30.271Z,90.19
2018-03-07T08:11:30.268Z,90.57
2018-03-07T08:12:30.765Z,90.85
2018-03-07T08:13:30.255Z,89.90
2018-03-07T08:14:30.253Z,90.95
2018-03-07T08:15:30.248Z,90.19
2018-03-07T08:16:30.242Z,89.81
2018-03-07T08:17:30.238Z,89.76
2018-03-07T08:18:30.236Z,89.67
2018-03-07T08:19:30.234Z,88.34
2018-03-07T08:20:30.226Z,88.90
2018-03-07T08:21:30.235Z,88.81
2018-03-07T08:22:30.222Z,88.53
2018-03-07T08:23:30.217Z,88.48
2018-03-07T08:24:30.220Z,87.95
2018-03-07T08:25:30.212Z,88.43
2018-03-07T08:26:30.209Z,88.71
2018-03-07T08:27:30.206Z,88.15
2018-03-07T08:28:30.198Z,88.15
2018-03-07T08:29:30.212Z,87.67
2018-03-07T08:30:30.194Z,86.91
2018-03-07T08:31:30.190Z,86.29
2018-03-07T08:32:30.189Z,84.86
2018-03-07T08:33:30.181Z,84.72
2018-03-07T08:34:30.185Z,84.52
2018-03-07T08:35:30.181Z,83.76
2018-03-07T08:36:30.179Z,84.24
2018-03-07T08:37:30.177Z,83.39
2018-03-07T08:38:30.176Z,82.81
2018-03-07T08:39:30.172Z,83.67
2018-03-07T08:40:30.172Z,84.20
2018-03-07T08:41:30.169Z,83.34
2018-03-07T08:42:30.170Z,84.48
2018-03-07T08:43:30.164Z,84.01
2018-03-07T08:44:30.170Z,84.67
2018-03-07T08:45:30.161Z,84.33
2018-03-07T08:46:30.166Z,83.71
2018-03-07T08:47:30.160Z,83.23
2018-03-07T08:48:30.163Z,82.67
2018-03-07T08:49:30.156Z,81.47
2018-03-07T08:50:30.160Z,81.37
2018-03-07T08:51:30.156Z,81.28
2018-03-07T08:52:30.154Z,80.42
2018-03-07T08:53:30.157Z,79.09
2018-03-07T08:54:30.157Z,78.71
2018-03-07T08:55:30.155Z,78.80
2018-03-07T08:56:30.169Z,79.81
2018-03-07T08:57:30.154Z,80.13
2018-03-07T08:58:30.166Z,79.66
2018-03-07T08:59:30.156Z,79.47
2018-03-07T09:00:30.160Z,79.85
2018-03-07T09:01:30.203Z,80.80
2018-03-07T09:02:30.162Z,79.43
2018-03-07T09:03:30.161Z,80.52
2018-03-07T09:04:30.164Z,80.61
2018-03-07T09:05:30.161Z,79.99
2018-03-07T09:06:30.163Z,78.71
2018-03-07T09:07:30.169Z,79.33
2018-03-07T09:08:30.169Z,80.66
2018-03-07T09:09:30.171Z,81.14
2018-03-07T09:10:30.174Z,79.89
2018-03-07T09:11:30.174Z,76.94
2018-03-07T09:12:30.182Z,78.22
2018-03-07T09:13:30.202Z,76.29
2018-03-07T09:14:30.206Z,75.37
2018-03-07T09:15:30.208Z,73.66
2018-03-07T09:16:30.189Z,72.30
2018-03-07T09:17:30.192Z,70.46
2018-03-07T09:18:30.194Z,69.12
2018-03-07T09:19:30.200Z,68.41
2018-03-07T09:20:30.203Z,68.20
2018-03-07T09:21:30.211Z,66.32
2018-03-07T09:22:30.220Z,67.91
2018-03-07T09:23:30.226Z,70.54
2018-03-07T09:24:30.232Z,69.87
2018-03-07T09:25:30.236Z,70.76
2018-03-07T09:26:30.294Z,71.93
2018-03-07T09:27:30.264Z,73.39
2018-03-07T09:28:30.300Z,72.37
2018-03-07T09:29:30.254Z,73.80
2018-03-07T09:30:30.268Z,72.92
2018-03-07T09:31:30.274Z,73.65
2018-03-07T09:32:30.280Z,72.42
2018-03-07T09:33:30.291Z,68.98
2018-03-07T09:34:30.291Z,70.36
2018-03-07T09:35:30.297Z,69.46
2018-03-07T09:36:30.321Z,69.87
2018-03-07T09:37:30.327Z,70.72
2018-03-07T09:38:30.312Z,72.69
2018-03-07T09:39:30.315Z,72.16
2018-03-07T09:40:30.322Z,71.30
2018-03-07T09:41:30.328Z,71.39
2018-03-07T09:42:30.335Z,71.80
2018-03-07T09:43:30.333Z,73.01
2018-03-07T09:44:30.340Z,71.41
2018-03-07T09:45:30.346Z,68.70
2018-03-07T09:46:30.350Z,66.76
2018-03-07T09:47:30.358Z,66.60
2018-03-07T09:48:30.362Z,68.15
2018-03-07T09:49:30.372Z,69.11
2018-03-07T09:50:30.386Z,65.87
2018-03-07T09:51:30.382Z,67.04
2018-03-07T09:52:30.382Z,69.17
2018-03-07T09:53:30.386Z,71.42
2018-03-07T09:54:30.391Z,72.94
2018-03-07T09:55:30.402Z,72.56
2018-03-07T09:56:30.464Z,72.46
2018-03-07T09:57:30.407Z,72.94
2018-03-07T09:58:30.414Z,73.65
2018-03-07T09:59:30.412Z,71.04
2018-03-07T10:00:30.416Z,68.66
2018-03-07T10:01:30.415Z,69.33
2018-03-07T10:02:30.423Z,70.63
2018-03-07T10:03:30.421Z,70.15
2018-03-07T10:04:30.422Z,68.82
2018-03-07T10:05:30.427Z,69.87
2018-03-07T10:06:30.428Z,70.02
2018-03-07T10:07:30.436Z,69.52
2018-03-07T10:08:30.438Z,67.62
2018-03-07T10:09:30.442Z,65.42
2018-03-07T10:10:30.442Z,65.58
2018-03-07T10:11:30.444Z,66.00
2018-03-07T10:12:30.451Z,65.17
2018-03-07T10:13:30.459Z,62.24
2018-03-07T10:14:30.513Z,61.89
2018-03-07T10:15:30.465Z,63.99
2018-03-07T10:16:30.491Z,62.14
2018-03-07T10:17:30.477Z,61.72
2018-03-07T10:18:30.483Z,62.14
2018-03-07T10:19:30.489Z,62.11
2018-03-07T10:20:30.494Z,63.67
2018-03-07T10:21:30.503Z,64.72
2018-03-07T10:22:30.508Z,65.93
2018-03-07T10:23:30.529Z,66.60
2018-03-07T10:24:30.537Z,64.21
2018-03-07T10:25:30.524Z,65.13
2018-03-07T10:26:30.529Z,65.42
2018-03-07T10:27:30.533Z,66.24
2018-03-07T10:28:30.536Z,68.59
2018-03-07T10:29:30.543Z,69.54
2018-03-07T10:30:30.547Z,70.65
2018-03-07T10:31:30.552Z,71.32
2018-03-07T10:32:30.554Z,71.76
2018-03-07T10:33:30.557Z,71.34
2018-03-07T10:34:30.557Z,72.86
2018-03-07T10:35:30.549Z,73.72
2018-03-07T10:36:30.561Z,73.53
2018-03-07T10:37:30.562Z,74.26
2018-03-07T10:38:30.567Z,74.16
2018-03-07T10:39:30.563Z,74.39
2018-03-07T10:40:30.564Z,74.01
2018-03-07T10:41:30.564Z,73.44
2018-03-07T10:42:30.562Z,73.76
2018-03-07T10:43:30.574Z,73.38
2018-03-07T10:44:30.565Z,73.72
2018-03-07T10:45:30.565Z,73.72
2018-03-07T10:46:30.575Z,73.82
2018-03-07T10:47:30.561Z,74.67
2018-03-07T10:48:30.561Z,74.67
2018-03-07T10:49:30.562Z,74.39
2018-03-07T10:50:30.566Z,74.62
2018-03-07T10:51:30.550Z,73.95
2018-03-07T10:52:30.563Z,73.57
2018-03-07T10:53:30.562Z,73.76
2018-03-07T10:54:30.562Z,73.57
2018-03-07T10:55:30.551Z,74.20
2018-03-07T10:56:30.559Z,73.34
2018-03-07T10:57:30.558Z,73.82
2018-03-07T10:58:30.562Z,74.58
2018-03-07T10:59:30.555Z,73.72
2018-03-07T11:00:30.556Z,74.39
2018-03-07T11:01:30.554Z,73.91
2018-03-07T11:02:30.558Z,74.33
2018-03-07T11:03:30.553Z,74.24
2018-03-07T11:04:30.555Z,74.58
2018-03-07T11:05:30.554Z,73.82
2018-03-07T11:06:30.555Z,74.01
2018-03-07T11:07:30.548Z,73.82
2018-03-07T11:08:30.553Z,74.01
2018-03-07T11:09:30.548Z,74.48
2018-03-07T11:10:30.544Z,74.67
2018-03-07T11:11:30.548Z,74.33
2018-03-07T11:12:30.546Z,74.99
2018-03-07T11:13:30.545Z,73.95
2018-03-07T11:14:30.546Z,73.47
2018-03-07T11:15:30.544Z,74.04
2018-03-07T11:16:30.541Z,74.01
2018-03-07T11:17:30.546Z,73.34
2018-03-07T11:18:30.554Z,74.29
2018-03-07T11:19:30.539Z,74.14
2018-03-07T11:20:30.537Z,74.43
2018-03-07T11:21:30.540Z,74.62
2018-03-07T11:22:30.541Z,73.47
2018-03-07T11:23:30.533Z,73.10
2018-03-07T11:24:30.559Z,73.28
2018-03-07T11:25:30.534Z,72.90
2018-03-07T11:26:30.556Z,71.57
2018-03-07T11:27:30.532Z,72.14
2018-03-07T11:28:30.577Z,71.91
2018-03-07T11:29:30.535Z,72.90
2018-03-07T11:30:30.527Z,72.62
2018-03-07T11:31:30.526Z,71.47
2018-03-07T11:32:30.523Z,72.05
2018-03-07T11:33:30.526Z,71.82
2018-03-07T11:34:30.530Z,72.01
2018-03-07T11:35:30.520Z,72.01
2018-03-07T11:36:30.525Z,73.15
2018-03-07T11:37:30.516Z,73.30
2018-03-07T11:38:30.533Z,72.86
2018-03-07T11:39:30.518Z,72.86
2018-03-07T11:40:30.514Z,72.86
2018-03-07T11:41:30.511Z,73.63
2018-03-07T11:42:30.514Z,73.15
2018-03-07T11:43:30.512Z,73.25
2018-03-07T11:44:30.513Z,71.78
2018-03-07T11:45:30.505Z,71.82
2018-03-07T11:46:30.504Z,72.67
2018-03-07T11:47:30.504Z,73.06
2018-03-07T11:48:30.501Z,73.06
2018-03-07T11:49:30.496Z,72.86
2018-03-07T11:50:30.503Z,72.30
2018-03-07T11:51:30.494Z,72.86
2018-03-07T11:52:30.493Z,73.34
2018-03-07T11:53:30.491Z,72.92
2018-03-07T11:54:30.490Z,73.02
2018-03-07T11:55:30.487Z,73.78
2018-03-07T11:56:30.488Z,74.07
2018-03-07T11:57:30.483Z,74.92
2018-03-07T11:58:30.501Z,74.63
2018-03-07T11:59:30.468Z,74.67
2018-03-07T12:00:30.476Z,74.39
2018-03-07T12:01:30.476Z,73.91
2018-03-07T12:02:30.473Z,73.34
2018-03-07T12:03:30.468Z,72.86
2018-03-07T12:04:30.468Z,73.72
2018-03-07T12:05:30.466Z,73.44
2018-03-07T12:06:30.493Z,72.01
2018-03-07T12:07:30.456Z,72.39
2018-03-07T12:08:30.460Z,73.06
2018-03-07T12:09:30.457Z,73.06
2018-03-07T12:10:30.452Z,73.59
2018-03-07T12:11:30.455Z,73.63
2018-03-07T12:12:30.452Z,74.01
2018-03-07T12:13:30.447Z,73.15
2018-03-07T12:14:30.493Z,73.15
2018-03-07T12:15:30.442Z,73.78
2018-03-07T12:16:30.465Z,72.92
2018-03-07T12:17:30.428Z,73.69
2018-03-07T12:18:30.438Z,74.54
2018-03-07T12:19:30.488Z,74.16
2018-03-07T12:20:30.431Z,73.78
2018-03-07T12:21:30.431Z,74.39
2018-03-07T12:22:30.511Z,74.20
2018-03-07T12:23:30.426Z,73.72
2018-03-07T12:24:30.423Z,73.53
2018-03-07T12:25:30.420Z,74.01
2018-03-07T12:26:30.418Z,73.91
2018-03-07T12:27:30.462Z,74.29
2018-03-07T12:28:30.418Z,73.88
2018-03-07T12:29:30.418Z,73.30
2018-03-07T12:30:30.411Z,73.11
2018-03-07T12:31:30.409Z,74.26
2018-03-07T12:32:30.408Z,73.84
2018-03-07T12:33:30.401Z,74.88
2018-03-07T12:34:30.403Z,75.07
2018-03-07T12:35:30.397Z,75.26
2018-03-07T12:36:30.394Z,74.69
2018-03-07T12:37:30.392Z,74.12
2018-03-07T12:38:30.391Z,74.98
2018-03-07T12:39:30.388Z,75.30
2018-03-07T12:40:30.384Z,75.49
2018-03-07T12:41:30.381Z,74.92
2018-03-07T12:42:30.380Z,74.73
2018-03-07T12:43:30.379Z,75.02
2018-03-07T12:44:30.371Z,73.97
2018-03-07T12:45:30.373Z,74.26
2018-03-07T12:46:30.365Z,75.15
2018-03-07T12:47:30.362Z,73.88
2018-03-07T12:48:30.362Z,73.69
2018-03-07T12:49:30.358Z,74.07
2018-03-07T12:50:30.359Z,74.07
2018-03-07T12:51:30.356Z,75.02
2018-03-07T12:52:30.349Z,74.92
2018-03-07T12:53:30.348Z,74.16
2018-03-07T12:54:30.345Z,74.82
2018-03-07T12:55:30.345Z,74.96
2018-03-07T12:56:30.342Z,74.44
2018-03-07T12:57:30.336Z,74.26
2018-03-07T12:58:30.335Z,73.88
2018-03-07T12:59:30.351Z,74.44
2018-03-07T13:00:30.328Z,74.51
2018-03-07T13:01:30.341Z,74.92
2018-03-07T13:02:30.325Z,75.64
2018-03-07T13:03:30.323Z,75.26
2018-03-07T13:04:30.317Z,74.51
2018-03-07T13:05:30.315Z,74.54
2018-03-07T13:06:30.313Z,74.26
2018-03-07T13:07:30.311Z,74.82
2018-03-07T13:08:30.304Z,74.63
2018-03-07T13:09:30.304Z,75.21
2018-03-07T13:10:30.309Z,74.73
2018-03-07T13:11:30.300Z,73.65
2018-03-07T13:12:30.297Z,74.35
2018-03-07T13:13:30.294Z,75.68
2018-03-07T13:14:30.292Z,74.63
2018-03-07T13:15:30.290Z,74.82
2018-03-07T13:16:30.286Z,75.11
2018-03-07T13:17:30.283Z,74.82
2018-03-07T13:18:30.282Z,75.36
2018-03-07T13:19:30.309Z,74.88
2018-03-07T13:20:30.288Z,75.26
2018-03-07T13:21:30.273Z,75.11
2018-03-07T13:22:30.269Z,75.21
2018-03-07T13:23:30.265Z,75.02
2018-03-07T13:24:30.262Z,75.40
2018-03-07T13:25:30.259Z,75.49
2018-03-07T13:26:30.255Z,75.59
2018-03-07T13:27:30.251Z,75.68
2018-03-07T13:28:30.255Z,74.92
2018-03-07T13:29:30.245Z,75.07
2018-03-07T13:30:30.243Z,75.26
2018-03-07T13:31:30.241Z,74.98
2018-03-07T13:32:30.249Z,75.74
2018-03-07T13:33:30.234Z,75.64
2018-03-07T13:34:30.231Z,74.88
2018-03-07T13:35:30.227Z,74.82
2018-03-07T13:36:30.226Z,74.73
2018-03-07T13:37:30.225Z,75.02
2018-03-07T13:38:30.249Z,74.92
2018-03-07T13:39:30.214Z,75.11
2018-03-07T13:40:30.214Z,74.63
2018-03-07T13:41:30.209Z,75.11
2018-03-07T13:42:30.205Z,75.49
2018-03-07T13:43:30.219Z,75.49
2018-03-07T13:44:30.202Z,75.78
2018-03-07T13:45:30.200Z,74.03
2018-03-07T13:46:30.216Z,75.36
2018-03-07T13:47:30.189Z,75.36
2018-03-07T13:48:30.186Z,75.68
2018-03-07T13:49:30.173Z,75.68
2018-03-07T13:50:30.177Z,74.26
2018-03-07T13:51:30.180Z,74.26
2018-03-07T13:52:30.174Z,75.21
2018-03-07T13:53:30.171Z,73.97
2018-03-07T13:54:30.167Z,75.55
2018-03-07T13:55:30.163Z,74.98
2018-03-07T13:56:30.180Z,75.07
2018-03-07T13:57:30.158Z,75.84
2018-03-07T13:58:30.159Z,75.45
2018-03-07T13:59:30.154Z,75.93
2018-03-07T14:00:30.147Z,75.45
2018-03-07T14:01:30.144Z,75.96
2018-03-07T14:02:30.143Z,75.55
2018-03-07T14:03:30.140Z,75.64
2018-03-07T14:04:30.134Z,75.74
2018-03-07T14:05:30.185Z,75.96